createdAt,value
2023-04-18T00:00:54.267Z,7.74
2023-04-18T00:01:54.191Z,7.73
2023-04-18T00:02:54.326Z,7.77
2023-04-18T00:03:54.247Z,7.74
2023-04-18T00:04:54.203Z,7.73
2023-04-18T00:05:54.114Z,7.71
2023-04-18T00:06:55.549Z,7.69
2023-04-18T00:07:54.164Z,7.74
2023-04-18T00:08:54.247Z,7.64
2023-04-18T00:09:54.194Z,7.66
2023-04-18T00:10:54.222Z,7.66
2023-04-18T00:11:54.114Z,7.60
2023-04-18T00:12:55.506Z,7.61
2023-04-18T00:13:54.057Z,7.60
2023-04-18T00:14:54.262Z,7.55
2023-04-18T00:15:54.274Z,7.49
2023-04-18T00:16:54.359Z,7.47
2023-04-18T00:17:54.328Z,7.46
2023-04-18T00:18:54.353Z,7.46
2023-04-18T00:19:54.023Z,7.43
2023-04-18T00:20:53.994Z,7.43
2023-04-18T00:21:54.119Z,7.44
2023-04-18T00:22:54.155Z,7.39
2023-04-18T00:23:54.109Z,7.37
2023-04-18T00:24:55.112Z,7.33
2023-04-18T00:25:54.302Z,7.31
2023-04-18T00:26:54.121Z,7.26
2023-04-18T00:27:53.970Z,7.26
2023-04-18T00:28:53.978Z,7.21
2023-04-18T00:29:54.099Z,7.18
2023-04-18T00:30:53.940Z,7.15
2023-04-18T00:31:54.495Z,7.10
2023-04-18T00:32:53.975Z,7.10
2023-04-18T00:33:55.362Z,7.06
2023-04-18T00:34:55.396Z,7.07
2023-04-18T00:35:53.886Z,7.04
2023-04-18T00:36:55.358Z,7.03
2023-04-18T00:37:53.876Z,7.03
2023-04-18T00:38:53.909Z,6.99
2023-04-18T00:39:55.350Z,7.01
2023-04-18T00:40:53.878Z,7.01
2023-04-18T00:41:53.877Z,7.04
2023-04-18T00:42:54.100Z,7.03
2023-04-18T00:43:53.876Z,7.04
2023-04-18T00:44:54.071Z,7.00
2023-04-18T00:45:54.270Z,7.00
2023-04-18T00:46:55.284Z,6.99
2023-04-18T00:47:55.298Z,6.99
2023-04-18T00:48:53.967Z,7.00
2023-04-18T00:49:54.251Z,7.01
2023-04-18T00:50:53.794Z,7.01
2023-04-18T00:51:53.793Z,7.04
2023-04-18T00:52:53.791Z,7.01
2023-04-18T00:53:53.802Z,7.04
2023-04-18T00:54:53.799Z,7.06
2023-04-18T00:55:55.232Z,7.04
2023-04-18T00:56:53.767Z,7.11
2023-04-18T00:57:53.909Z,7.13
2023-04-18T00:58:53.965Z,7.16
2023-04-18T00:59:53.748Z,7.21
2023-04-18T01:00:54.057Z,7.22
2023-04-18T01:01:55.356Z,7.26
2023-04-18T01:02:55.412Z,7.29
2023-04-18T01:03:54.172Z,7.26
2023-04-18T01:04:55.177Z,7.28
2023-04-18T01:05:53.690Z,7.31
2023-04-18T01:06:53.684Z,7.33
2023-04-18T01:07:53.685Z,7.36
2023-04-18T01:08:55.396Z,7.36
2023-04-18T01:09:53.703Z,7.39
2023-04-18T01:10:55.138Z,7.37
2023-04-18T01:11:53.865Z,7.36
2023-04-18T01:12:55.114Z,7.37
2023-04-18T01:13:54.426Z,7.37
2023-04-18T01:14:53.636Z,7.39
2023-04-18T01:15:53.658Z,7.40
2023-04-18T01:16:53.756Z,7.37
2023-04-18T01:17:54.612Z,7.34
2023-04-18T01:18:54.478Z,7.31
2023-04-18T01:19:54.051Z,7.33
2023-04-18T01:20:53.889Z,7.36
2023-04-18T01:21:53.605Z,7.37
2023-04-18T01:22:53.603Z,7.43
2023-04-18T01:23:54.497Z,7.40
2023-04-18T01:24:53.788Z,7.40
2023-04-18T01:25:55.032Z,7.42
2023-04-18T01:26:53.572Z,7.43
2023-04-18T01:27:54.236Z,7.43
2023-04-18T01:28:53.744Z,7.44
2023-04-18T01:29:53.559Z,7.44
2023-04-18T01:30:53.556Z,7.47
2023-04-18T01:31:53.538Z,7.46
2023-04-18T01:32:53.663Z,7.47
2023-04-18T01:33:53.531Z,7.44
2023-04-18T01:34:53.504Z,7.43
2023-04-18T01:35:53.738Z,7.43
2023-04-18T01:36:53.778Z,7.43
2023-04-18T01:37:53.624Z,7.42
2023-04-18T01:38:53.542Z,7.39
2023-04-18T01:39:53.719Z,7.40
2023-04-18T01:40:53.465Z,7.39
2023-04-18T01:41:54.026Z,7.40
2023-04-18T01:42:53.977Z,7.40
2023-04-18T01:43:53.529Z,7.34
2023-04-18T01:44:54.178Z,7.31
2023-04-18T01:45:54.232Z,7.24
2023-04-18T01:46:55.012Z,7.22
2023-04-18T01:47:53.493Z,7.19
2023-04-18T01:48:53.424Z,7.15
2023-04-18T01:49:53.405Z,7.16
2023-04-18T01:50:53.641Z,7.13
2023-04-18T01:51:53.390Z,7.13
2023-04-18T01:52:53.384Z,7.10
2023-04-18T01:53:54.062Z,7.10
2023-04-18T01:54:53.974Z,7.13
2023-04-18T01:55:53.372Z,7.15
2023-04-18T01:56:54.406Z,7.11
2023-04-18T01:57:53.355Z,7.13
2023-04-18T01:58:53.440Z,7.13
2023-04-18T01:59:53.340Z,7.13
2023-04-18T02:00:53.377Z,7.15
2023-04-18T02:01:53.371Z,7.15
2023-04-18T02:02:53.519Z,7.16
2023-04-18T02:03:53.569Z,7.21
2023-04-18T02:04:53.532Z,7.19
2023-04-18T02:05:53.302Z,7.24
2023-04-18T02:06:54.211Z,7.25
2023-04-18T02:07:53.306Z,7.25
2023-04-18T02:08:53.312Z,7.26
2023-04-18T02:09:53.274Z,7.29
2023-04-18T02:10:53.400Z,7.29
2023-04-18T02:11:53.274Z,7.31
2023-04-18T02:12:54.729Z,7.33
2023-04-18T02:13:53.285Z,7.36
2023-04-18T02:14:53.240Z,7.37
2023-04-18T02:15:53.231Z,7.36
2023-04-18T02:16:53.296Z,7.40
2023-04-18T02:17:53.289Z,7.43
2023-04-18T02:18:53.269Z,7.44
2023-04-18T02:19:53.354Z,7.50
2023-04-18T02:20:53.221Z,7.47
2023-04-18T02:21:53.194Z,7.49
2023-04-18T02:22:53.334Z,7.52
2023-04-18T02:23:53.367Z,7.50
2023-04-18T02:24:53.243Z,7.49
2023-04-18T02:25:54.615Z,7.50
2023-04-18T02:26:53.419Z,7.43
2023-04-18T02:27:53.155Z,7.47
2023-04-18T02:28:53.193Z,7.42
2023-04-18T02:29:53.131Z,7.42
2023-04-18T02:30:53.206Z,7.37
2023-04-18T02:31:53.234Z,7.36
2023-04-18T02:32:53.250Z,7.36
2023-04-18T02:33:53.133Z,7.37
2023-04-18T02:34:53.136Z,7.37
2023-04-18T02:35:53.100Z,7.36
2023-04-18T02:36:53.126Z,7.42
2023-04-18T02:37:53.151Z,7.43
2023-04-18T02:38:53.237Z,7.46
2023-04-18T02:39:53.308Z,7.52
2023-04-18T02:40:53.314Z,7.46
2023-04-18T02:41:53.059Z,7.44
2023-04-18T02:42:53.146Z,7.46
2023-04-18T02:43:54.554Z,7.49
2023-04-18T02:44:53.035Z,7.47
2023-04-18T02:45:53.077Z,7.44
2023-04-18T02:46:53.028Z,7.43
2023-04-18T02:47:56.197Z,7.43
2023-04-18T02:48:54.644Z,7.42
2023-04-18T02:49:53.015Z,7.44
2023-04-18T02:50:53.125Z,7.39
2023-04-18T02:51:53.026Z,7.39
2023-04-18T02:52:53.262Z,7.33
2023-04-18T02:53:54.482Z,7.33
2023-04-18T02:54:52.969Z,7.34
2023-04-18T02:55:53.226Z,7.37
2023-04-18T02:56:53.473Z,7.34
2023-04-18T02:57:54.409Z,7.33
2023-04-18T02:58:53.694Z,7.36
2023-04-18T02:59:52.930Z,7.37
2023-04-18T03:00:52.938Z,7.36
2023-04-18T03:01:52.954Z,7.31
2023-04-18T03:02:54.514Z,7.26
2023-04-18T03:03:53.010Z,7.29
2023-04-18T03:04:54.355Z,7.31
2023-04-18T03:05:52.896Z,7.29
2023-04-18T03:06:53.029Z,7.29
2023-04-18T03:07:53.474Z,7.24
2023-04-18T03:08:52.901Z,7.26
2023-04-18T03:09:52.908Z,7.22
2023-04-18T03:10:56.180Z,7.21
2023-04-18T03:11:52.863Z,7.24
2023-04-18T03:12:52.934Z,7.24
2023-04-18T03:13:52.945Z,7.22
2023-04-18T03:14:52.850Z,7.25
2023-04-18T03:15:53.109Z,7.24
2023-04-18T03:16:55.220Z,7.22
2023-04-18T03:17:52.860Z,7.25
2023-04-18T03:18:53.040Z,7.25
2023-04-18T03:19:54.256Z,7.24
2023-04-18T03:20:54.264Z,7.21
2023-04-18T03:21:52.796Z,7.25
2023-04-18T03:22:52.869Z,7.25
2023-04-18T03:23:52.803Z,7.28
2023-04-18T03:24:52.778Z,7.29
2023-04-18T03:25:52.778Z,7.28
2023-04-18T03:26:52.769Z,7.26
2023-04-18T03:27:52.735Z,7.25
2023-04-18T03:28:52.783Z,7.29
2023-04-18T03:29:52.740Z,7.21
2023-04-18T03:30:52.765Z,7.22
2023-04-18T03:31:52.728Z,7.24
2023-04-18T03:32:52.832Z,7.24
2023-04-18T03:33:52.722Z,7.25
2023-04-18T03:34:52.711Z,7.25
2023-04-18T03:35:52.715Z,7.25
2023-04-18T03:36:52.737Z,7.25
2023-04-18T03:37:52.729Z,7.26
2023-04-18T03:38:52.806Z,7.28
2023-04-18T03:39:52.674Z,7.25
2023-04-18T03:40:52.829Z,7.25
2023-04-18T03:41:54.121Z,7.25
2023-04-18T03:42:52.857Z,7.19
2023-04-18T03:43:52.871Z,7.15
2023-04-18T03:44:52.706Z,7.11
2023-04-18T03:45:52.923Z,7.10
2023-04-18T03:46:52.632Z,7.10
2023-04-18T03:47:54.108Z,7.07
2023-04-18T03:48:52.950Z,7.04
2023-04-18T03:49:52.594Z,7.04
2023-04-18T03:50:52.727Z,7.04
2023-04-18T03:51:52.972Z,7.06
2023-04-18T03:52:52.685Z,7.07
2023-04-18T03:53:54.053Z,7.07
2023-04-18T03:54:52.586Z,7.07
2023-04-18T03:55:52.895Z,7.07
2023-04-18T03:56:53.033Z,7.10
2023-04-18T03:57:52.609Z,7.10
2023-04-18T03:58:52.593Z,7.10
2023-04-18T03:59:52.552Z,7.13
2023-04-18T04:00:52.574Z,7.15
2023-04-18T04:01:52.708Z,7.16
2023-04-18T04:02:52.870Z,7.18
2023-04-18T04:03:52.856Z,7.13
2023-04-18T04:04:54.012Z,7.13
2023-04-18T04:05:52.649Z,7.13
2023-04-18T04:06:52.675Z,7.21
2023-04-18T04:07:52.505Z,7.18
2023-04-18T04:08:53.957Z,7.15
2023-04-18T04:09:52.471Z,7.16
2023-04-18T04:10:52.712Z,7.18
2023-04-18T04:11:52.461Z,7.15
2023-04-18T04:12:52.478Z,7.15
2023-04-18T04:13:52.456Z,7.16
2023-04-18T04:14:52.446Z,7.16
2023-04-18T04:15:52.435Z,7.15
2023-04-18T04:16:52.594Z,7.11
2023-04-18T04:17:52.495Z,7.15
2023-04-18T04:18:53.886Z,7.16
2023-04-18T04:19:53.861Z,7.21
2023-04-18T04:20:52.398Z,7.21
2023-04-18T04:21:52.381Z,7.16
2023-04-18T04:22:53.905Z,7.15
2023-04-18T04:23:53.848Z,7.08
2023-04-18T04:24:52.497Z,7.07
2023-04-18T04:25:52.383Z,7.07
2023-04-18T04:26:52.359Z,7.06
2023-04-18T04:27:52.569Z,7.08
2023-04-18T04:28:52.337Z,7.04
2023-04-18T04:29:52.452Z,7.04
2023-04-18T04:30:52.482Z,7.07
2023-04-18T04:31:52.390Z,7.07
2023-04-18T04:32:52.623Z,7.10
2023-04-18T04:33:52.348Z,7.13
2023-04-18T04:34:52.318Z,7.11
2023-04-18T04:35:52.308Z,7.16
2023-04-18T04:36:52.360Z,7.16
2023-04-18T04:37:53.798Z,7.18
2023-04-18T04:38:52.318Z,7.21
2023-04-18T04:39:52.566Z,7.19
2023-04-18T04:40:53.730Z,7.19
2023-04-18T04:41:52.256Z,7.21
2023-04-18T04:42:52.367Z,7.26
2023-04-18T04:43:52.261Z,7.25
2023-04-18T04:44:52.308Z,7.28
2023-04-18T04:45:52.531Z,7.26
2023-04-18T04:46:52.233Z,7.29
2023-04-18T04:47:52.277Z,7.33
2023-04-18T04:48:53.679Z,7.34
2023-04-18T04:49:52.198Z,7.37
2023-04-18T04:50:52.195Z,7.37
2023-04-18T04:51:53.642Z,7.34
2023-04-18T04:52:52.355Z,7.34
2023-04-18T04:53:52.187Z,7.29
2023-04-18T04:54:53.636Z,7.26
2023-04-18T04:55:52.297Z,7.29
2023-04-18T04:56:53.618Z,7.33
2023-04-18T04:57:52.179Z,7.36
2023-04-18T04:58:52.144Z,7.39
2023-04-18T04:59:53.593Z,7.39
2023-04-18T05:00:52.158Z,7.46
2023-04-18T05:01:52.255Z,7.39
2023-04-18T05:02:52.188Z,7.43
2023-04-18T05:03:52.170Z,7.44
2023-04-18T05:04:52.270Z,7.49
2023-04-18T05:05:52.094Z,7.52
2023-04-18T05:06:53.551Z,7.50
2023-04-18T05:07:52.129Z,7.47
2023-04-18T05:08:52.109Z,7.47
2023-04-18T05:09:52.428Z,7.50
2023-04-18T05:10:52.065Z,7.49
2023-04-18T05:11:52.095Z,7.49
2023-04-18T05:12:52.137Z,7.55
2023-04-18T05:13:52.139Z,7.55
2023-04-18T05:14:53.485Z,7.58
2023-04-18T05:15:52.295Z,7.58
2023-04-18T05:16:53.553Z,7.57
2023-04-18T05:17:52.102Z,7.60
2023-04-18T05:18:52.000Z,7.61
2023-04-18T05:19:52.009Z,7.68
2023-04-18T05:20:52.526Z,7.69
2023-04-18T05:21:53.447Z,7.71
2023-04-18T05:22:52.203Z,7.74
2023-04-18T05:23:51.984Z,7.73
2023-04-18T05:24:53.439Z,7.73
2023-04-18T05:25:51.949Z,7.74
2023-04-18T05:26:53.420Z,7.69
2023-04-18T05:27:51.960Z,7.71
2023-04-18T05:28:51.939Z,7.76
2023-04-18T05:29:51.949Z,7.80
2023-04-18T05:30:51.932Z,7.84
2023-04-18T05:31:51.946Z,7.84
2023-04-18T05:32:53.474Z,7.87
2023-04-18T05:33:53.171Z,7.88
2023-04-18T05:34:51.909Z,7.91
2023-04-18T05:35:51.893Z,7.94
2023-04-18T05:36:52.120Z,7.88
2023-04-18T05:37:51.976Z,7.88
2023-04-18T05:38:51.893Z,7.95
2023-04-18T05:39:53.338Z,7.95
2023-04-18T05:40:51.873Z,7.94
2023-04-18T05:41:51.854Z,7.96
2023-04-18T05:42:51.844Z,7.92
2023-04-18T05:44:16.750Z,7.95
2023-04-18T05:44:51.850Z,7.94
2023-04-18T05:45:54.234Z,7.88
2023-04-18T05:46:51.840Z,7.94
2023-04-18T05:47:51.881Z,7.95
2023-04-18T05:48:53.257Z,7.95
2023-04-18T05:49:51.798Z,7.95
2023-04-18T05:50:52.001Z,7.98
2023-04-18T05:51:51.789Z,8.01
2023-04-18T05:52:53.246Z,8.01
2023-04-18T05:53:51.846Z,7.95
2023-04-18T05:54:52.196Z,7.91
2023-04-18T05:55:52.261Z,7.94
2023-04-18T05:56:51.864Z,7.94
2023-04-18T05:57:53.229Z,7.95
2023-04-18T05:58:51.745Z,7.96
2023-04-18T05:59:51.735Z,7.98
2023-04-18T06:00:51.761Z,8.01
2023-04-18T06:01:53.217Z,7.94
2023-04-18T06:02:52.318Z,8.01
2023-04-18T06:03:52.859Z,7.98
2023-04-18T06:04:51.807Z,8.01
2023-04-18T06:05:51.791Z,8.02
2023-04-18T06:06:51.706Z,8.02
2023-04-18T06:07:51.842Z,8.04
2023-04-18T06:08:52.971Z,7.99
2023-04-18T06:09:53.142Z,8.02
2023-04-18T06:10:51.649Z,8.05
2023-04-18T06:11:51.676Z,8.10
2023-04-18T06:12:51.691Z,8.13
2023-04-18T06:13:51.732Z,8.13
2023-04-18T06:14:51.747Z,8.17
2023-04-18T06:15:53.382Z,8.20
2023-04-18T06:16:51.663Z,8.21
2023-04-18T06:17:51.730Z,8.19
2023-04-18T06:18:51.605Z,8.20
2023-04-18T06:19:53.060Z,8.23
2023-04-18T06:20:51.605Z,8.28
2023-04-18T06:21:51.631Z,8.32
2023-04-18T06:22:52.068Z,8.38
2023-04-18T06:23:51.784Z,8.37
2023-04-18T06:24:51.671Z,8.29
2023-04-18T06:25:51.557Z,8.31
2023-04-18T06:26:51.587Z,8.31
2023-04-18T06:27:51.613Z,8.28
2023-04-18T06:28:51.538Z,8.28
2023-04-18T06:29:51.538Z,8.37
2023-04-18T06:30:51.581Z,8.42
2023-04-18T06:31:51.649Z,8.42
2023-04-18T06:32:53.053Z,8.42
2023-04-18T06:33:51.627Z,8.39
2023-04-18T06:34:51.530Z,8.37
2023-04-18T06:35:51.521Z,8.37
2023-04-18T06:36:51.575Z,8.32
2023-04-18T06:37:51.632Z,8.38
2023-04-18T06:38:51.501Z,8.35
2023-04-18T06:39:51.483Z,8.32
2023-04-18T06:40:51.452Z,8.32
2023-04-18T06:41:51.468Z,8.35
2023-04-18T06:42:51.446Z,8.39
2023-04-18T06:44:02.900Z,8.47
2023-04-18T06:44:52.904Z,8.47
2023-04-18T06:45:52.534Z,8.50
2023-04-18T06:46:51.432Z,8.41
2023-04-18T06:47:51.911Z,8.42
2023-04-18T06:48:51.591Z,8.42
2023-04-18T06:49:51.403Z,8.46
2023-04-18T06:50:51.401Z,8.47
2023-04-18T06:51:52.830Z,8.46
2023-04-18T06:52:51.554Z,8.50
2023-04-18T06:53:51.372Z,8.50
2023-04-18T06:54:51.392Z,8.53
2023-04-18T06:55:52.838Z,8.47
2023-04-18T06:56:51.347Z,8.49
2023-04-18T06:57:51.496Z,8.46
2023-04-18T06:58:51.413Z,8.38
2023-04-18T06:59:52.237Z,8.42
2023-04-18T07:00:52.399Z,8.46
2023-04-18T07:01:52.265Z,8.47
2023-04-18T07:02:51.542Z,8.47
2023-04-18T07:03:51.375Z,8.46
2023-04-18T07:04:51.328Z,8.44
2023-04-18T07:05:51.393Z,8.42
2023-04-18T07:06:51.525Z,8.42
2023-04-18T07:07:51.455Z,8.42
2023-04-18T07:08:54.400Z,8.38
2023-04-18T07:09:52.751Z,8.44
2023-04-18T07:10:51.302Z,8.41
2023-04-18T07:11:51.309Z,8.41
2023-04-18T07:12:51.259Z,8.41
2023-04-18T07:13:51.288Z,8.37
2023-04-18T07:14:51.251Z,8.37
2023-04-18T07:15:51.249Z,8.37
2023-04-18T07:16:51.270Z,8.37
2023-04-18T07:17:51.711Z,8.37
2023-04-18T07:18:51.206Z,8.39
2023-04-18T07:19:51.213Z,8.42
2023-04-18T07:20:51.192Z,8.44
2023-04-18T07:21:51.198Z,8.53
2023-04-18T07:22:51.251Z,8.53
2023-04-18T07:23:51.190Z,8.59
2023-04-18T07:24:51.531Z,8.62
2023-04-18T07:25:51.166Z,8.68
2023-04-18T07:26:52.518Z,8.67
2023-04-18T07:27:51.145Z,8.70
2023-04-18T07:28:51.144Z,8.75
2023-04-18T07:29:51.144Z,8.86
2023-04-18T07:30:51.192Z,8.95
2023-04-18T07:31:51.151Z,9.04
2023-04-18T07:32:51.537Z,9.15
2023-04-18T07:33:51.111Z,9.22
2023-04-18T07:34:51.111Z,9.19
2023-04-18T07:35:51.377Z,9.18
2023-04-18T07:36:51.108Z,9.22
2023-04-18T07:37:51.157Z,9.26
2023-04-18T07:38:52.093Z,9.19
2023-04-18T07:39:51.148Z,9.15
2023-04-18T07:40:51.077Z,9.14
2023-04-18T07:41:51.091Z,9.15
2023-04-18T07:42:51.055Z,9.14
2023-04-18T07:43:51.041Z,9.08
2023-04-18T07:44:51.050Z,9.03
2023-04-18T07:45:51.088Z,9.04
2023-04-18T07:46:51.172Z,9.03
2023-04-18T07:47:51.111Z,9.01
2023-04-18T07:48:51.023Z,9.01
2023-04-18T07:49:51.017Z,9.04
2023-04-18T07:50:50.997Z,9.03
2023-04-18T07:51:50.998Z,8.96
2023-04-18T07:52:51.060Z,8.95
2023-04-18T07:53:50.989Z,8.95
2023-04-18T07:54:50.971Z,9.01
2023-04-18T07:55:50.978Z,8.99
2023-04-18T07:56:50.970Z,8.95
2023-04-18T07:57:50.961Z,8.90
2023-04-18T07:58:50.989Z,8.89
2023-04-18T07:59:50.952Z,8.92
2023-04-18T08:00:50.960Z,8.89
2023-04-18T08:01:50.930Z,8.90
2023-04-18T08:02:51.159Z,8.96
2023-04-18T08:03:51.027Z,8.98
2023-04-18T08:04:51.095Z,8.98
2023-04-18T08:05:50.933Z,8.99
2023-04-18T08:06:51.464Z,8.98
2023-04-18T08:07:51.088Z,8.99
2023-04-18T08:08:50.880Z,9.06
2023-04-18T08:09:50.867Z,9.12
2023-04-18T08:10:51.073Z,9.16
2023-04-18T08:11:50.934Z,9.24
2023-04-18T08:12:50.844Z,9.18
2023-04-18T08:13:50.865Z,9.16
2023-04-18T08:14:50.859Z,9.26
2023-04-18T08:15:50.896Z,9.27
2023-04-18T08:16:50.985Z,9.33
2023-04-18T08:17:50.872Z,9.37
2023-04-18T08:18:50.836Z,9.42
2023-04-18T08:19:50.815Z,9.41
2023-04-18T08:20:50.812Z,9.41
2023-04-18T08:21:50.784Z,9.45
2023-04-18T08:23:50.804Z,9.48
2023-04-18T08:25:03.799Z,9.44
2023-04-18T08:25:50.796Z,9.48
2023-04-18T08:26:50.766Z,9.63
2023-04-18T08:27:50.759Z,9.70
2023-04-18T08:28:50.762Z,9.81
2023-04-18T08:29:50.766Z,9.81
2023-04-18T08:30:50.797Z,9.78
2023-04-18T08:31:50.785Z,9.80
2023-04-18T08:32:50.780Z,9.83
2023-04-18T08:33:50.752Z,9.81
2023-04-18T08:34:50.692Z,9.77
2023-04-18T08:35:50.694Z,9.80
2023-04-18T08:36:50.683Z,9.87
2023-04-18T08:37:50.755Z,9.93
2023-04-18T08:38:50.696Z,10.01
2023-04-18T08:39:50.676Z,10.06
2023-04-18T08:40:50.750Z,10.06
2023-04-18T08:41:50.652Z,10.09
2023-04-18T08:42:50.664Z,10.12
2023-04-18T08:43:50.703Z,10.23
2023-04-18T08:44:50.641Z,10.35
2023-04-18T08:45:50.692Z,10.38
2023-04-18T08:46:50.652Z,10.49
2023-04-18T08:47:51.034Z,10.67
2023-04-18T08:48:50.639Z,10.83
2023-04-18T08:49:50.646Z,10.97
2023-04-18T08:50:50.603Z,11.00
2023-04-18T08:51:50.579Z,10.97
2023-04-18T08:52:50.805Z,11.08
2023-04-18T08:53:52.058Z,11.11
2023-04-18T08:54:50.923Z,11.11
2023-04-18T08:55:50.646Z,11.13
2023-04-18T08:56:50.578Z,11.12
2023-04-18T08:57:50.592Z,10.95
2023-04-18T08:58:50.637Z,10.75
2023-04-18T08:59:51.172Z,10.79
2023-04-18T09:00:50.709Z,10.87
2023-04-18T09:01:50.575Z,11.05
2023-04-18T09:02:50.609Z,11.01
2023-04-18T09:03:50.555Z,11.09
2023-04-18T09:04:50.528Z,11.18
2023-04-18T09:05:50.913Z,11.22
2023-04-18T09:06:50.487Z,11.27
2023-04-18T09:07:50.500Z,11.40
2023-04-18T09:08:50.526Z,11.45
2023-04-18T09:09:51.946Z,11.41
2023-04-18T09:10:50.485Z,11.45
2023-04-18T09:11:51.924Z,11.45
2023-04-18T09:12:50.741Z,11.51
2023-04-18T09:13:50.535Z,11.40
2023-04-18T09:14:50.438Z,11.43
2023-04-18T09:15:50.467Z,11.49
2023-04-18T09:16:50.536Z,11.45
2023-04-18T09:17:51.897Z,11.34
2023-04-18T09:18:50.447Z,11.36
2023-04-18T09:19:51.875Z,11.46
2023-04-18T09:20:50.409Z,11.51
2023-04-18T09:21:50.533Z,11.56
2023-04-18T09:22:50.588Z,11.61
2023-04-18T09:23:50.424Z,11.56
2023-04-18T09:24:51.852Z,11.46
2023-04-18T09:25:50.433Z,11.30
2023-04-18T09:26:50.369Z,11.12
2023-04-18T09:27:50.522Z,11.09
2023-04-18T09:28:52.114Z,11.13
2023-04-18T09:29:50.357Z,11.22
2023-04-18T09:30:50.702Z,11.28
2023-04-18T09:31:50.449Z,11.38
2023-04-18T09:32:50.363Z,11.33
2023-04-18T09:33:50.387Z,11.33
2023-04-18T09:34:50.333Z,11.28
2023-04-18T09:35:50.360Z,11.38
2023-04-18T09:36:50.352Z,11.48
2023-04-18T09:37:50.448Z,11.52
2023-04-18T09:38:50.509Z,11.54
2023-04-18T09:39:50.378Z,11.52
2023-04-18T09:40:50.284Z,11.43
2023-04-18T09:41:50.324Z,11.40
2023-04-18T09:42:50.744Z,11.37
2023-04-18T09:43:50.258Z,11.33
2023-04-18T09:44:50.356Z,11.40
2023-04-18T09:45:51.751Z,11.45
2023-04-18T09:46:50.549Z,11.46
2023-04-18T09:47:50.275Z,11.51
2023-04-18T09:48:50.802Z,11.55
2023-04-18T09:49:51.228Z,11.51
2023-04-18T09:50:50.210Z,11.58
2023-04-18T09:51:50.200Z,11.55
2023-04-18T09:52:50.264Z,11.61
2023-04-18T09:53:50.233Z,11.64
2023-04-18T09:54:50.204Z,11.64
2023-04-18T09:55:50.283Z,11.49
2023-04-18T09:56:51.156Z,11.62
2023-04-18T09:57:50.169Z,11.80
2023-04-18T09:58:50.160Z,11.96
2023-04-18T09:59:51.603Z,12.11
2023-04-18T10:00:51.730Z,12.13
2023-04-18T10:01:51.646Z,12.14
2023-04-18T10:02:51.687Z,12.18
2023-04-18T10:03:50.327Z,12.23
2023-04-18T10:04:50.176Z,12.33
2023-04-18T10:05:50.361Z,12.44
2023-04-18T10:06:50.881Z,12.46
2023-04-18T10:07:50.608Z,12.40
2023-04-18T10:08:50.605Z,12.30
2023-04-18T10:09:50.470Z,12.15
2023-04-18T10:10:51.557Z,12.13
2023-04-18T10:11:51.501Z,11.99
2023-04-18T10:12:50.072Z,12.05
2023-04-18T10:13:50.108Z,12.05
2023-04-18T10:14:51.496Z,12.07
2023-04-18T10:15:50.066Z,12.17
2023-04-18T10:16:50.680Z,12.14
2023-04-18T10:18:02.724Z,12.23
2023-04-18T10:18:50.013Z,12.30
2023-04-18T10:19:50.009Z,12.32
2023-04-18T10:20:50.050Z,12.25
2023-04-18T10:21:49.995Z,12.23
2023-04-18T10:22:49.996Z,12.22
2023-04-18T10:23:51.442Z,12.28
2023-04-18T10:24:50.152Z,12.35
2023-04-18T10:25:50.015Z,12.44
2023-04-18T10:26:49.967Z,12.50
2023-04-18T10:27:49.953Z,12.46
2023-04-18T10:28:50.225Z,12.51
2023-04-18T10:29:49.926Z,12.58
2023-04-18T10:30:51.405Z,12.71
2023-04-18T10:31:51.431Z,12.81
2023-04-18T10:32:49.958Z,12.93
2023-04-18T10:34:03.183Z,13.09
2023-04-18T10:34:49.924Z,13.04
2023-04-18T10:35:51.424Z,13.16
2023-04-18T10:36:49.893Z,13.26
2023-04-18T10:37:51.357Z,13.13
2023-04-18T10:38:49.874Z,12.96
2023-04-18T10:39:49.897Z,13.01
2023-04-18T10:40:49.859Z,13.01
2023-04-18T10:41:50.915Z,12.99
2023-04-18T10:42:49.832Z,12.93
2023-04-18T10:43:49.847Z,12.73
2023-04-18T10:44:49.827Z,12.79
2023-04-18T10:45:49.857Z,12.90
2023-04-18T10:46:49.849Z,12.96
2023-04-18T10:47:50.973Z,13.02
2023-04-18T10:48:49.803Z,13.17
2023-04-18T10:49:49.806Z,13.38
2023-04-18T10:50:50.757Z,13.42
2023-04-18T10:51:50.902Z,13.57
2023-04-18T10:52:49.790Z,13.60
2023-04-18T10:53:51.254Z,13.58
2023-04-18T10:54:49.751Z,13.61
2023-04-18T10:55:49.828Z,13.61
2023-04-18T10:56:49.774Z,13.60
2023-04-18T10:57:50.037Z,13.54
2023-04-18T10:58:51.473Z,13.49
2023-04-18T10:59:51.198Z,13.60
2023-04-18T11:00:51.376Z,13.71
2023-04-18T11:01:49.712Z,13.68
2023-04-18T11:02:50.411Z,13.78
2023-04-18T11:03:49.791Z,13.51
2023-04-18T11:04:50.256Z,13.58
2023-04-18T11:05:49.690Z,13.49
2023-04-18T11:06:51.147Z,13.53
2023-04-18T11:07:50.463Z,13.51
2023-04-18T11:08:50.477Z,13.51
2023-04-18T11:09:50.466Z,13.55
2023-04-18T11:10:49.670Z,13.63
2023-04-18T11:11:49.646Z,13.67
2023-04-18T11:12:50.058Z,13.71
2023-04-18T11:13:50.620Z,13.96
2023-04-18T11:14:49.653Z,14.16
2023-04-18T11:15:50.401Z,14.13
2023-04-18T11:16:49.715Z,13.94
2023-04-18T11:17:50.508Z,14.05
2023-04-18T11:18:50.590Z,14.33
2023-04-18T11:19:50.542Z,14.59
2023-04-18T11:20:50.428Z,14.96
2023-04-18T11:21:49.741Z,15.58
2023-04-18T11:22:49.748Z,16.03
2023-04-18T11:23:49.610Z,16.32
2023-04-18T11:24:49.604Z,16.25
2023-04-18T11:25:49.600Z,16.17
2023-04-18T11:26:49.548Z,16.05
2023-04-18T11:27:49.589Z,15.91
2023-04-18T11:28:49.536Z,15.50
2023-04-18T11:29:49.547Z,15.35
2023-04-18T11:30:49.509Z,15.26
2023-04-18T11:31:49.525Z,14.99
2023-04-18T11:32:49.618Z,14.90
2023-04-18T11:33:49.483Z,14.79
2023-04-18T11:34:49.523Z,14.82
2023-04-18T11:35:49.471Z,14.70
2023-04-18T11:36:49.463Z,14.70
2023-04-18T11:37:49.454Z,14.55
2023-04-18T11:38:49.452Z,14.36
2023-04-18T11:39:49.474Z,14.37
2023-04-18T11:40:49.449Z,14.48
2023-04-18T11:41:50.901Z,14.34
2023-04-18T11:42:49.455Z,14.26
2023-04-18T11:43:49.509Z,14.31
2023-04-18T11:44:49.698Z,14.45
2023-04-18T11:45:49.581Z,14.67
2023-04-18T11:46:49.400Z,14.82
2023-04-18T11:47:49.439Z,14.96
2023-04-18T11:48:49.402Z,14.95
2023-04-18T11:49:49.472Z,14.74
2023-04-18T11:50:49.385Z,14.67
2023-04-18T11:51:49.379Z,15.15
2023-04-18T11:52:49.372Z,15.12
2023-04-18T11:53:49.347Z,15.15
2023-04-18T11:54:49.357Z,15.17
2023-04-18T11:55:49.325Z,15.25
2023-04-18T11:56:49.437Z,15.84
2023-04-18T11:57:49.375Z,16.28
2023-04-18T11:58:49.330Z,16.57
2023-04-18T11:59:49.342Z,16.74
2023-04-18T12:00:49.312Z,16.73
2023-04-18T12:01:50.054Z,17.39
2023-04-18T12:02:49.516Z,17.45
2023-04-18T12:03:49.465Z,17.35
2023-04-18T12:04:49.603Z,16.69
2023-04-18T12:05:49.532Z,16.44
2023-04-18T12:06:49.268Z,16.79
2023-04-18T12:07:49.254Z,17.19
2023-04-18T12:08:49.266Z,17.22
2023-04-18T12:09:49.257Z,17.12
2023-04-18T12:10:49.255Z,17.65
2023-04-18T12:11:49.229Z,18.30
2023-04-18T12:12:50.733Z,18.15
2023-04-18T12:13:50.685Z,17.47
2023-04-18T12:14:49.259Z,17.34
2023-04-18T12:15:49.258Z,17.49
2023-04-18T12:16:50.708Z,17.76
2023-04-18T12:17:49.255Z,18.51
2023-04-18T12:18:49.185Z,19.04
2023-04-18T12:19:49.902Z,19.39
2023-04-18T12:20:49.190Z,19.47
2023-04-18T12:21:49.280Z,19.59
2023-04-18T12:22:49.208Z,19.59
2023-04-18T12:23:49.149Z,19.87
2023-04-18T12:24:49.156Z,19.57
2023-04-18T12:25:49.149Z,19.67
2023-04-18T12:26:49.134Z,19.99
2023-04-18T12:27:49.128Z,20.30
2023-04-18T12:28:49.115Z,20.18
2023-04-18T12:29:49.107Z,19.99
2023-04-18T12:30:49.168Z,19.45
2023-04-18T12:31:49.122Z,19.41
2023-04-18T12:32:49.124Z,19.67
2023-04-18T12:33:49.088Z,19.64
2023-04-18T12:34:49.092Z,19.47
2023-04-18T12:35:49.668Z,19.19
2023-04-18T12:36:49.092Z,19.07
2023-04-18T12:37:49.050Z,18.94
2023-04-18T12:38:49.077Z,18.60
2023-04-18T12:39:49.026Z,18.23
2023-04-18T12:40:49.068Z,17.87
2023-04-18T12:41:49.919Z,17.27
2023-04-18T12:42:49.021Z,16.84
2023-04-18T12:43:49.018Z,16.69
2023-04-18T12:44:49.055Z,16.42
2023-04-18T12:45:49.007Z,16.52
2023-04-18T12:46:48.994Z,16.42
2023-04-18T12:47:49.035Z,16.62
2023-04-18T12:48:49.014Z,16.84
2023-04-18T12:49:48.971Z,17.09
2023-04-18T12:50:48.983Z,17.38
2023-04-18T12:51:48.975Z,17.46
2023-04-18T12:52:48.955Z,17.27
2023-04-18T12:53:48.950Z,17.01
2023-04-18T12:54:48.936Z,16.87
2023-04-18T12:55:49.100Z,16.73
2023-04-18T12:56:48.942Z,16.69
2023-04-18T12:57:48.934Z,16.69
2023-04-18T12:58:48.937Z,16.73
2023-04-18T12:59:48.923Z,17.25
2023-04-18T13:00:49.177Z,17.63
2023-04-18T13:01:49.405Z,17.86
2023-04-18T13:02:49.020Z,17.91
2023-04-18T13:04:00.000Z,17.84
2023-04-18T13:04:48.962Z,17.79
2023-04-18T13:05:48.889Z,18.02
2023-04-18T13:06:48.865Z,18.20
2023-04-18T13:07:48.851Z,18.06
2023-04-18T13:08:48.829Z,18.02
2023-04-18T13:09:48.834Z,18.28
2023-04-18T13:10:48.864Z,18.46